Time;durP1;ratioP1;P1;durP2;ratioP2;P2;SDS_P1;SDS_P2;PMS_P1;PMS_P2;Temp;Humidity;BMP_temperature;BMP_pressure;BME280_temperature;BME280_humidity;BME280_pressure;Samples;Min_cycle;Max_cycle;Signal;HPM_P1;HPM_P2
2023/08/24 00:01:16;;;;;;;;;;;27.50;91.50;;;;;;5095201;28;19915;-74
2023/08/24 00:03:43;;;;;;;;;;;27.50;91.50;;;;;;5095076;28;19999;-72
2023/08/24 00:06:09;;;;;;;;;;;27.40;91.40;;;;;;5095088;28;19908;-73
2023/08/24 00:08:34;;;;;;;;;;;27.50;91.50;;;;;;5094296;28;19908;-66
2023/08/24 00:11:00;;;;;;;;;;;27.50;91.50;;;;;;5094993;28;20375;-72
2023/08/24 00:13:25;;;;;;;;;;;27.50;91.50;;;;;;5094929;28;19915;-71
2023/08/24 00:15:52;;;;;;;;;;;27.50;91.50;;;;;;5095195;28;19908;-73
2023/08/24 00:18:18;;;;;;;;;;;27.50;91.50;;;;;;5094904;28;19916;-73
2023/08/24 00:20:44;;;;;;;;;;;27.50;91.50;;;;;;5095110;28;19912;-72
2023/08/24 00:23:09;;;;;;;;;;;27.50;91.50;;;;;;5094753;28;20065;-72
2023/08/24 00:25:35;;;;;;;;;;;27.50;91.50;;;;;;5094802;28;19908;-71
2023/08/24 00:28:01;;;;;;;;;;;27.50;91.50;;;;;;5094717;28;19908;-72
2023/08/24 00:30:26;;;;;;;;;;;27.50;91.50;;;;;;5094898;28;19955;-73
2023/08/24 00:32:52;;;;;;;;;;;27.50;91.40;;;;;;5094877;28;19912;-73
2023/08/24 00:35:17;;;;;;;;;;;27.50;91.40;;;;;;5094855;28;19923;-72
2023/08/24 00:37:43;;;;;;;;;;;27.50;91.40;;;;;;5094397;28;20362;-72
2023/08/24 00:40:09;;;;;;;;;;;27.50;91.40;;;;;;5094485;28;19909;-72
2023/08/24 00:42:41;;;;;;;;;;;27.50;91.50;;;;;;5094715;28;19908;-72
2023/08/24 00:45:09;;;;;;;;;;;27.50;91.40;;;;;;5094147;28;19920;-73
2023/08/24 00:47:35;;;;;;;;;;;27.50;91.40;;;;;;5094465;28;19999;-72
2023/08/24 00:50:01;;;;;;;;;;;27.50;91.40;;;;;;5094227;28;19935;-71
2023/08/24 00:52:28;;;;;;;;;;;27.50;91.40;;;;;;5094590;28;19912;-71
2023/08/24 00:54:54;;;;;;;;;;;27.50;91.40;;;;;;5094295;28;19912;-72
2023/08/24 00:57:20;;;;;;;;;;;27.50;91.40;;;;;;5094756;28;19920;-72
2023/08/24 00:59:46;;;;;;;;;;;27.50;91.40;;;;;;5094465;28;19909;-71
2023/08/24 01:02:12;;;;;;;;;;;27.50;91.40;;;;;;5094397;28;19908;-71
2023/08/24 01:04:37;;;;;;;;;;;27.50;91.40;;;;;;5094276;28;20328;-72
2023/08/24 01:07:03;;;;;;;;;;;27.50;91.40;;;;;;5094091;28;19908;-72
2023/08/24 01:09:28;;;;;;;;;;;27.50;91.40;;;;;;5094284;28;19962;-69
2023/08/24 01:11:54;;;;;;;;;;;27.50;91.40;;;;;;5094314;28;19912;-72
2023/08/24 01:14:38;;;;;;;;;;;27.50;91.40;;;;;;5094234;28;19908;-73
2023/08/24 01:17:05;;;;;;;;;;;27.50;91.50;;;;;;5094312;28;19908;-73
2023/08/24 01:19:31;;;;;;;;;;;27.50;91.40;;;;;;5093924;28;20278;-72
2023/08/24 01:21:57;;;;;;;;;;;27.50;91.40;;;;;;5094291;28;19908;-73
2023/08/24 01:24:31;;;;;;;;;;;27.50;91.70;;;;;;5093862;28;20347;-74
2023/08/24 01:26:56;;;;;;;;;;;27.50;91.40;;;;;;5094235;28;19915;-73
2023/08/24 01:29:22;;;;;;;;;;;27.50;91.50;;;;;;5093765;28;19912;-74
2023/08/24 01:31:49;;;;;;;;;;;27.50;91.40;;;;;;5093844;28;19916;-74
2023/08/24 01:34:14;;;;;;;;;;;27.50;91.50;;;;;;5093994;28;19908;-74
2023/08/24 01:36:40;;;;;;;;;;;27.50;91.50;;;;;;5094404;28;19915;-74
2023/08/24 01:39:11;;;;;;;;;;;27.50;91.50;;;;;;5093804;28;20328;-74
2023/08/24 01:41:42;;;;;;;;;;;27.50;91.50;;;;;;5092752;28;19909;-70
2023/08/24 01:44:09;;;;;;;;;;;27.50;91.40;;;;;;5094153;28;19912;-74
2023/08/24 01:46:36;;;;;;;;;;;27.40;91.40;;;;;;5094158;28;20377;-74
2023/08/24 01:49:03;;;;;;;;;;;27.50;91.50;;;;;;5093700;28;20294;-74
2023/08/24 01:51:29;;;;;;;;;;;27.50;91.40;;;;;;5096837;28;19916;-74
2023/08/24 01:53:54;;;;;;;;;;;27.50;91.40;;;;;;5098139;28;20006;-74
2023/08/24 01:56:20;;;;;;;;;;;27.50;91.50;;;;;;5097967;28;19951;-74
2023/08/24 01:58:45;;;;;;;;;;;27.50;91.70;;;;;;5097670;28;19912;-74
2023/08/24 02:01:12;;;;;;;;;;;27.50;91.50;;;;;;5096674;28;20274;-74
2023/08/24 02:03:39;;;;;;;;;;;27.50;91.50;;;;;;5097875;28;19912;-75
2023/08/24 02:06:06;;;;;;;;;;;27.50;91.50;;;;;;5097625;28;19908;-75
2023/08/24 02:08:32;;;;;;;;;;;27.50;91.40;;;;;;5097765;28;19908;-73
2023/08/24 02:10:57;;;;;;;;;;;27.50;91.40;;;;;;5097632;28;19920;-74
2023/08/24 02:13:23;;;;;;;;;;;27.50;91.40;;;;;;5097977;28;19908;-74
2023/08/24 02:15:48;;;;;;;;;;;27.50;91.50;;;;;;5097252;28;19962;-74
2023/08/24 02:18:14;;;;;;;;;;;27.50;91.40;;;;;;5097587;28;19960;-74
2023/08/24 02:20:40;;;;;;;;;;;27.50;91.40;;;;;;5097456;28;19977;-74
2023/08/24 02:23:06;;;;;;;;;;;27.50;91.40;;;;;;5097457;28;19916;-74
2023/08/24 02:25:31;;;;;;;;;;;27.50;91.40;;;;;;5097302;28;19908;-73
2023/08/24 02:27:57;;;;;;;;;;;27.50;91.40;;;;;;5097138;28;19999;-74
2023/08/24 02:30:22;;;;;;;;;;;27.40;91.40;;;;;;5097247;28;19977;-73
2023/08/24 02:32:48;;;;;;;;;;;27.40;91.40;;;;;;5097231;28;19920;-74
2023/08/24 02:35:13;;;;;;;;;;;27.50;91.40;;;;;;5097228;28;19998;-74
2023/08/24 02:37:39;;;;;;;;;;;27.40;91.40;;;;;;5097154;28;19916;-73
2023/08/24 02:40:05;;;;;;;;;;;27.50;91.40;;;;;;5096884;28;19908;-73
2023/08/24 02:42:31;;;;;;;;;;;27.40;91.40;;;;;;5096857;28;19914;-72
2023/08/24 02:44:57;;;;;;;;;;;27.50;91.40;;;;;;5096636;28;19999;-74
2023/08/24 02:47:22;;;;;;;;;;;27.50;91.40;;;;;;5096817;28;20350;-73
2023/08/24 02:49:48;;;;;;;;;;;27.50;91.40;;;;;;5096809;28;19957;-74
2023/08/24 02:52:13;;;;;;;;;;;27.50;91.40;;;;;;5097251;28;20293;-74
2023/08/24 02:54:39;;;;;;;;;;;27.40;91.40;;;;;;5096582;28;19975;-74
2023/08/24 02:57:04;;;;;;;;;;;27.50;91.40;;;;;;5096807;28;20418;-74
2023/08/24 02:59:30;;;;;;;;;;;27.50;91.40;;;;;;5078694;28;19915;-74
2023/08/24 03:01:55;;;;;;;;;;;27.40;91.40;;;;;;5096450;28;19912;-72
2023/08/24 03:04:21;;;;;;;;;;;27.50;91.40;;;;;;5096753;28;20006;-73
2023/08/24 03:06:47;;;;;;;;;;;27.50;91.40;;;;;;5096664;28;19908;-73
2023/08/24 03:09:12;;;;;;;;;;;27.50;91.40;;;;;;5096224;28;19997;-73
2023/08/24 03:11:38;;;;;;;;;;;27.50;91.40;;;;;;5096828;28;19916;-73
2023/08/24 03:14:03;;;;;;;;;;;27.40;91.40;;;;;;5096374;28;20329;-73
2023/08/24 03:16:29;;;;;;;;;;;27.40;91.40;;;;;;5096372;28;20431;-74
2023/08/24 03:18:54;;;;;;;;;;;27.50;91.40;;;;;;5096275;28;19908;-74
2023/08/24 03:21:20;;;;;;;;;;;27.50;91.40;;;;;;5096564;28;20343;-75
2023/08/24 03:23:46;;;;;;;;;;;27.50;91.40;;;;;;5095985;28;19934;-74
2023/08/24 03:26:11;;;;;;;;;;;27.40;91.40;;;;;;5095810;28;19908;-74
2023/08/24 03:28:37;;;;;;;;;;;27.50;91.40;;;;;;5096135;28;19973;-74
2023/08/24 03:31:02;;;;;;;;;;;27.40;91.40;;;;;;5095777;28;19916;-72
2023/08/24 03:33:28;;;;;;;;;;;27.50;91.40;;;;;;5095905;28;19912;-74
2023/08/24 03:35:53;;;;;;;;;;;27.40;91.40;;;;;;5095812;28;19908;-74
2023/08/24 03:38:19;;;;;;;;;;;27.50;91.40;;;;;;5095940;28;19932;-74
2023/08/24 03:40:44;;;;;;;;;;;27.40;91.40;;;;;;5095558;28;19959;-74
2023/08/24 03:43:10;;;;;;;;;;;27.50;91.40;;;;;;5095843;28;20009;-74
2023/08/24 03:45:36;;;;;;;;;;;27.50;91.40;;;;;;5095769;28;19924;-74
2023/08/24 03:48:01;;;;;;;;;;;27.50;91.40;;;;;;5095829;28;19998;-75
2023/08/24 03:50:27;;;;;;;;;;;27.40;91.40;;;;;;5095613;28;19912;-74
2023/08/24 03:52:54;;;;;;;;;;;27.50;91.40;;;;;;5095648;28;19937;-75
2023/08/24 03:55:20;;;;;;;;;;;27.40;91.40;;;;;;5095578;28;19908;-75
2023/08/24 03:57:45;;;;;;;;;;;27.40;91.40;;;;;;5095349;28;20034;-74
2023/08/24 04:00:11;;;;;;;;;;;27.50;91.40;;;;;;5095243;28;19913;-75
2023/08/24 04:02:42;;;;;;;;;;;27.50;91.40;;;;;;5095515;28;19909;-74
2023/08/24 04:05:08;;;;;;;;;;;27.50;91.40;;;;;;5095463;28;19946;-74
2023/08/24 04:07:36;;;;;;;;;;;27.40;91.40;;;;;;5095715;28;19908;-73
2023/08/24 04:10:03;;;;;;;;;;;27.40;91.40;;;;;;5095235;28;19912;-75
2023/08/24 04:12:28;;;;;;;;;;;27.40;91.40;;;;;;5095038;28;20329;-75
2023/08/24 04:14:54;;;;;;;;;;;27.40;91.40;;;;;;5095242;28;19908;-74
2023/08/24 04:17:19;;;;;;;;;;;27.50;91.40;;;;;;5095210;28;19915;-74
2023/08/24 04:19:45;;;;;;;;;;;27.50;91.40;;;;;;5094851;28;19908;-74
2023/08/24 04:22:10;;;;;;;;;;;27.40;91.40;;;;;;5095056;28;19908;-73
2023/08/24 04:24:36;;;;;;;;;;;27.40;91.40;;;;;;5093614;28;19908;-75
2023/08/24 04:27:01;;;;;;;;;;;27.40;91.40;;;;;;5094876;28;20011;-74
2023/08/24 04:29:27;;;;;;;;;;;27.40;91.40;;;;;;5094583;28;19916;-74
2023/08/24 04:31:53;;;;;;;;;;;27.40;91.40;;;;;;5094898;28;19957;-74
2023/08/24 04:34:18;;;;;;;;;;;27.40;91.40;;;;;;5094502;28;20269;-75
2023/08/24 04:36:43;;;;;;;;;;;27.40;91.40;;;;;;5094795;28;19912;-74
2023/08/24 04:39:10;;;;;;;;;;;27.40;91.40;;;;;;5094849;28;20007;-74
2023/08/24 04:41:35;;;;;;;;;;;27.40;91.40;;;;;;5094557;28;20367;-73
2023/08/24 04:44:01;;;;;;;;;;;27.40;91.40;;;;;;5094280;28;19908;-74
2023/08/24 04:46:26;;;;;;;;;;;27.50;91.40;;;;;;5094627;28;20018;-74
2023/08/24 04:48:52;;;;;;;;;;;27.40;91.40;;;;;;5094271;28;19912;-75
2023/08/24 04:51:17;;;;;;;;;;;27.50;91.40;;;;;;5094323;28;19916;-74
2023/08/24 04:53:43;;;;;;;;;;;27.40;91.40;;;;;;5094418;28;19908;-74
2023/08/24 04:56:08;;;;;;;;;;;27.40;91.40;;;;;;5094313;28;19908;-74
2023/08/24 04:58:34;;;;;;;;;;;27.40;91.40;;;;;;5094485;28;19916;-75
2023/08/24 05:00:59;;;;;;;;;;;27.40;91.40;;;;;;5094735;28;20304;-74
2023/08/24 05:03:25;;;;;;;;;;;27.40;91.40;;;;;;5093970;28;19915;-74
2023/08/24 05:05:50;;;;;;;;;;;27.40;91.30;;;;;;5094191;28;20010;-75
2023/08/24 05:08:16;;;;;;;;;;;27.40;91.30;;;;;;5093967;28;19915;-75
2023/08/24 05:10:41;;;;;;;;;;;27.40;91.30;;;;;;5094306;28;19916;-73
2023/08/24 05:13:07;;;;;;;;;;;27.40;91.30;;;;;;5094228;28;19979;-74
2023/08/24 05:15:32;;;;;;;;;;;27.40;91.30;;;;;;5094269;28;19908;-75
2023/08/24 05:17:59;;;;;;;;;;;27.40;91.30;;;;;;5093851;28;19955;-75
2023/08/24 05:20:25;;;;;;;;;;;27.40;91.30;;;;;;5094483;28;19912;-74
2023/08/24 05:22:50;;;;;;;;;;;27.40;91.30;;;;;;5094069;28;20275;-74
2023/08/24 05:25:16;;;;;;;;;;;27.40;91.30;;;;;;5092712;28;19908;-75
2023/08/24 05:27:42;;;;;;;;;;;27.40;91.30;;;;;;5094025;28;19915;-73
2023/08/24 05:30:07;;;;;;;;;;;27.40;91.30;;;;;;5094040;28;19920;-74
2023/08/24 05:32:33;;;;;;;;;;;27.40;91.20;;;;;;5093906;28;19963;-75
2023/08/24 05:34:59;;;;;;;;;;;27.40;91.30;;;;;;5093788;28;19908;-74
2023/08/24 05:37:24;;;;;;;;;;;27.40;91.20;;;;;;5093587;28;20034;-75
2023/08/24 05:39:50;;;;;;;;;;;27.40;91.20;;;;;;5093843;28;19916;-74
2023/08/24 05:42:15;;;;;;;;;;;27.40;91.20;;;;;;5092589;28;19989;-75
2023/08/24 05:44:41;;;;;;;;;;;27.40;91.20;;;;;;5093676;28;19908;-74
2023/08/24 05:47:06;;;;;;;;;;;27.40;91.20;;;;;;5093758;28;19970;-74
2023/08/24 05:49:32;;;;;;;;;;;27.40;91.30;;;;;;5093693;28;19916;-74
2023/08/24 05:51:57;;;;;;;;;;;27.40;91.30;;;;;;5093805;28;19916;-74
2023/08/24 05:54:23;;;;;;;;;;;27.40;91.30;;;;;;5093473;28;20298;-74
2023/08/24 05:56:48;;;;;;;;;;;27.50;91.30;;;;;;5093450;28;19955;-74
2023/08/24 05:59:14;;;;;;;;;;;27.50;91.20;;;;;;5093264;28;20011;-74
2023/08/24 06:01:41;;;;;;;;;;;27.40;91.20;;;;;;5093942;28;20326;-74
2023/08/24 06:04:07;;;;;;;;;;;27.40;91.20;;;;;;5093623;28;19908;-72
2023/08/24 06:06:32;;;;;;;;;;;27.40;91.20;;;;;;5093244;28;19908;-74
2023/08/24 06:08:58;;;;;;;;;;;27.50;91.20;;;;;;5093525;28;19954;-74
2023/08/24 06:11:23;;;;;;;;;;;27.40;91.10;;;;;;5093130;28;19912;-74
2023/08/24 06:13:49;;;;;;;;;;;27.40;91.20;;;;;;5093509;28;19944;-74
2023/08/24 06:16:14;;;;;;;;;;;27.40;91.20;;;;;;5093399;28;19949;-74
2023/08/24 06:18:40;;;;;;;;;;;27.40;91.20;;;;;;5093922;28;19958;-74
2023/08/24 06:21:05;;;;;;;;;;;27.50;91.30;;;;;;5093203;28;19912;-74
2023/08/24 06:23:31;;;;;;;;;;;27.40;91.20;;;;;;5093361;28;19908;-74
2023/08/24 06:25:56;;;;;;;;;;;27.40;91.20;;;;;;5093371;28;19912;-74
2023/08/24 06:28:22;;;;;;;;;;;27.40;91.20;;;;;;5091955;28;19909;-74
2023/08/24 06:30:47;;;;;;;;;;;27.40;91.20;;;;;;5093084;28;19969;-74
2023/08/24 06:33:13;;;;;;;;;;;27.40;91.20;;;;;;5092887;28;20375;-73
2023/08/24 06:35:39;;;;;;;;;;;27.40;91.30;;;;;;5092910;28;20426;-74
2023/08/24 06:38:04;;;;;;;;;;;27.50;91.30;;;;;;5096487;28;19912;-74
2023/08/24 06:40:30;;;;;;;;;;;27.40;91.30;;;;;;5096848;28;20385;-73
2023/08/24 06:42:58;;;;;;;;;;;27.50;91.30;;;;;;5096593;28;19947;-73
2023/08/24 06:45:24;;;;;;;;;;;27.50;91.30;;;;;;5096689;28;19920;-74
2023/08/24 06:47:51;;;;;;;;;;;27.40;91.30;;;;;;5096842;28;19908;-73
2023/08/24 06:50:16;;;;;;;;;;;27.40;91.30;;;;;;5095506;28;20282;-74
2023/08/24 06:52:42;;;;;;;;;;;27.50;91.30;;;;;;5096810;28;19912;-73
2023/08/24 06:55:11;;;;;;;;;;;27.50;91.30;;;;;;5096513;28;19912;-70
2023/08/24 06:57:37;;;;;;;;;;;27.50;91.30;;;;;;5096405;28;19961;-73
2023/08/24 07:00:07;;;;;;;;;;;27.50;91.30;;;;;;5095546;28;19912;-73
2023/08/24 07:02:33;;;;;;;;;;;27.50;91.30;;;;;;5096454;28;19908;-73
2023/08/24 07:04:59;;;;;;;;;;;27.50;91.30;;;;;;5096536;28;20004;-73
2023/08/24 07:07:25;;;;;;;;;;;27.50;91.30;;;;;;5096222;28;19952;-74
2023/08/24 07:09:50;;;;;;;;;;;27.50;91.50;;;;;;5096110;28;19918;-74
2023/08/24 07:12:16;;;;;;;;;;;27.40;91.30;;;;;;5096220;28;19912;-74
2023/08/24 07:14:41;;;;;;;;;;;27.50;91.30;;;;;;5096097;28;20325;-74
2023/08/24 07:17:07;;;;;;;;;;;27.50;91.30;;;;;;5096077;28;19908;-74
2023/08/24 07:19:32;;;;;;;;;;;27.50;91.40;;;;;;5096114;28;19934;-75
2023/08/24 07:21:58;;;;;;;;;;;27.40;91.30;;;;;;5095879;28;20351;-74
2023/08/24 07:24:26;;;;;;;;;;;27.40;91.40;;;;;;5095814;28;19908;-75
2023/08/24 07:26:52;;;;;;;;;;;27.50;91.40;;;;;;5095864;28;20281;-75
2023/08/24 07:29:17;;;;;;;;;;;27.50;91.40;;;;;;5095917;28;19922;-72
2023/08/24 07:31:43;;;;;;;;;;;27.50;91.40;;;;;;5095700;28;19912;-74
2023/08/24 07:34:08;;;;;;;;;;;27.50;91.40;;;;;;5096031;28;19955;-70
2023/08/24 07:36:34;;;;;;;;;;;27.50;91.40;;;;;;5095734;28;20004;-75
2023/08/24 07:38:59;;;;;;;;;;;27.50;91.40;;;;;;5095561;28;19912;-74
2023/08/24 07:41:25;;;;;;;;;;;27.50;91.40;;;;;;5095772;28;19920;-74
2023/08/24 07:43:50;;;;;;;;;;;27.50;91.40;;;;;;5095496;28;20278;-73
2023/08/24 07:46:16;;;;;;;;;;;27.50;91.40;;;;;;5094122;28;19973;-73
2023/08/24 07:48:41;;;;;;;;;;;27.50;91.40;;;;;;5094181;28;19916;-73
2023/08/24 07:51:07;;;;;;;;;;;27.40;91.40;;;;;;5095258;28;19926;-74
2023/08/24 07:53:33;;;;;;;;;;;27.50;91.40;;;;;;5095176;28;19953;-74
2023/08/24 07:55:58;;;;;;;;;;;27.40;91.40;;;;;;5095844;28;19957;-73
2023/08/24 07:58:24;;;;;;;;;;;27.50;91.40;;;;;;5095448;28;20367;-74
2023/08/24 08:00:51;;;;;;;;;;;27.40;91.40;;;;;;5095044;28;20367;-74
2023/08/24 08:03:20;;;;;;;;;;;27.50;91.40;;;;;;5095203;28;20350;-74
2023/08/24 08:05:46;;;;;;;;;;;27.50;91.40;;;;;;5094932;28;19917;-74
2023/08/24 08:08:12;;;;;;;;;;;27.40;91.40;;;;;;5094828;28;19908;-75
2023/08/24 08:10:38;;;;;;;;;;;27.40;91.40;;;;;;5094766;28;20287;-74
2023/08/24 08:13:03;;;;;;;;;;;27.50;91.40;;;;;;5094863;28;19942;-74
2023/08/24 08:15:29;;;;;;;;;;;27.40;91.40;;;;;;5094953;28;20267;-75
2023/08/24 08:17:54;;;;;;;;;;;27.50;91.40;;;;;;5094777;28;19914;-74
2023/08/24 08:20:20;;;;;;;;;;;27.40;91.40;;;;;;5094851;28;19908;-74
2023/08/24 08:22:45;;;;;;;;;;;27.50;91.40;;;;;;5094672;28;19908;-73
2023/08/24 08:25:12;;;;;;;;;;;27.40;91.40;;;;;;5095028;28;19916;-73
2023/08/24 08:27:37;;;;;;;;;;;27.40;91.40;;;;;;5093963;28;20270;-74
2023/08/24 08:30:04;;;;;;;;;;;27.40;91.40;;;;;;5094553;28;19912;-73
2023/08/24 08:32:30;;;;;;;;;;;27.50;91.40;;;;;;5095081;28;19939;-74
2023/08/24 08:34:58;;;;;;;;;;;27.40;91.40;;;;;;5094787;28;20255;-74
2023/08/24 08:37:23;;;;;;;;;;;27.50;91.40;;;;;;5093403;28;19908;-73
2023/08/24 08:39:49;;;;;;;;;;;27.40;91.40;;;;;;5094410;28;20007;-74
2023/08/24 08:42:14;;;;;;;;;;;27.40;91.40;;;;;;5094666;28;19908;-73
2023/08/24 08:44:41;;;;;;;;;;;27.40;91.40;;;;;;5094766;28;20270;-66
2023/08/24 08:47:08;;;;;;;;;;;27.40;91.40;;;;;;5094642;28;19931;-73
2023/08/24 08:49:35;;;;;;;;;;;27.40;91.40;;;;;;5094330;28;19912;-73
2023/08/24 08:52:01;;;;;;;;;;;27.40;91.40;;;;;;5094484;28;20291;-72
2023/08/24 08:54:26;;;;;;;;;;;27.40;91.40;;;;;;5094384;28;19908;-72
2023/08/24 08:56:52;;;;;;;;;;;27.40;91.40;;;;;;5094314;28;19952;-72
2023/08/24 08:59:17;;;;;;;;;;;27.40;91.40;;;;;;5093891;28;19919;-72
2023/08/24 09:01:45;;;;;;;;;;;27.40;91.40;;;;;;5093843;28;19908;-73
2023/08/24 09:04:11;;;;;;;;;;;27.40;91.40;;;;;;5094311;28;19915;-73
2023/08/24 09:06:36;;;;;;;;;;;27.40;91.40;;;;;;5093844;28;19908;-74
2023/08/24 09:09:02;;;;;;;;;;;27.40;91.50;;;;;;5092881;28;19908;-74
2023/08/24 09:11:28;;;;;;;;;;;27.40;91.50;;;;;;5093796;28;19950;-74
2023/08/24 09:13:53;;;;;;;;;;;27.40;91.50;;;;;;5094087;28;19908;-74
2023/08/24 09:16:19;;;;;;;;;;;27.40;91.50;;;;;;5094332;28;20339;-74
2023/08/24 09:18:46;;;;;;;;;;;27.40;91.50;;;;;;5093727;28;20035;-74
2023/08/24 09:21:12;;;;;;;;;;;27.40;91.50;;;;;;5094009;28;19908;-71
2023/08/24 09:23:42;;;;;;;;;;;27.40;91.50;;;;;;5093616;28;19977;-74
2023/08/24 09:26:08;;;;;;;;;;;27.40;91.50;;;;;;5094206;28;19912;-74
2023/08/24 09:28:33;;;;;;;;;;;27.40;91.50;;;;;;5093890;28;19914;-74
2023/08/24 09:31:00;;;;;;;;;;;27.40;91.50;;;;;;5093912;28;19920;-74
2023/08/24 09:33:25;;;;;;;;;;;27.40;91.50;;;;;;5094191;28;19919;-74
2023/08/24 09:36:04;;;;;;;;;;;27.40;91.50;;;;;;5093716;28;19908;-74
2023/08/24 09:38:29;;;;;;;;;;;27.40;91.50;;;;;;5093881;28;19908;-74
2023/08/24 09:40:55;;;;;;;;;;;27.40;91.50;;;;;;5093810;28;19961;-74
2023/08/24 09:43:21;;;;;;;;;;;27.40;91.50;;;;;;5093483;28;19912;-73
2023/08/24 09:45:54;;;;;;;;;;;27.40;91.50;;;;;;5093609;28;19920;-73
2023/08/24 09:48:20;;;;;;;;;;;27.40;91.50;;;;;;5093256;28;20003;-73
2023/08/24 09:50:46;;;;;;;;;;;27.40;91.50;;;;;;5092418;28;20339;-73
2023/08/24 09:53:20;;;;;;;;;;;27.40;91.50;;;;;;5093871;28;20011;-67
2023/08/24 09:55:49;;;;;;;;;;;27.40;91.50;;;;;;5092153;28;19965;-73
2023/08/24 09:58:15;;;;;;;;;;;27.40;91.50;;;;;;5093440;28;19915;-72
2023/08/24 10:00:41;;;;;;;;;;;27.40;91.60;;;;;;5093366;28;19991;-74
2023/08/24 10:03:08;;;;;;;;;;;27.40;91.60;;;;;;5093399;28;20410;-73
2023/08/24 10:05:34;;;;;;;;;;;27.40;91.60;;;;;;5093259;28;20424;-74
2023/08/24 10:08:01;;;;;;;;;;;27.40;91.60;;;;;;5092130;28;19907;-73
2023/08/24 10:10:28;;;;;;;;;;;27.40;91.60;;;;;;5093579;28;19912;-73
2023/08/24 10:12:58;;;;;;;;;;;27.40;91.60;;;;;;5096957;28;20389;-73
2023/08/24 10:15:24;;;;;;;;;;;27.40;91.60;;;;;;5097141;28;19915;-73
2023/08/24 10:17:50;;;;;;;;;;;27.40;91.60;;;;;;5097085;28;20286;-73
2023/08/24 10:20:17;;;;;;;;;;;27.40;91.60;;;;;;5097192;28;19916;-72
2023/08/24 10:22:44;;;;;;;;;;;27.40;91.60;;;;;;5097009;28;19908;-71
2023/08/24 10:25:09;;;;;;;;;;;27.40;91.60;;;;;;5096982;28;19947;-73
2023/08/24 10:27:35;;;;;;;;;;;27.40;91.60;;;;;;5096961;28;19943;-73
2023/08/24 10:30:01;;;;;;;;;;;27.40;91.60;;;;;;5096869;28;19912;-74
2023/08/24 10:32:26;;;;;;;;;;;27.40;91.60;;;;;;5097171;28;20355;-74
2023/08/24 10:34:52;;;;;;;;;;;27.40;91.60;;;;;;5096758;28;20354;-74
2023/08/24 10:37:24;;;;;;;;;;;27.40;91.60;;;;;;5096541;28;19992;-71
2023/08/24 10:39:49;;;;;;;;;;;27.40;91.60;;;;;;5096948;28;19987;-72
2023/08/24 10:42:15;;;;;;;;;;;27.40;91.60;;;;;;5096833;28;19973;-73
2023/08/24 10:44:43;;;;;;;;;;;27.40;91.60;;;;;;5096863;28;19915;-73
2023/08/24 10:47:14;;;;;;;;;;;27.40;91.60;;;;;;5096652;28;19908;-74
2023/08/24 10:49:40;;;;;;;;;;;27.40;91.60;;;;;;5096407;28;20034;-73
2023/08/24 10:52:22;;;;;;;;;;;27.40;91.70;;;;;;5096949;28;19916;-73
2023/08/24 10:54:51;;;;;;;;;;;27.40;91.70;;;;;;5096776;28;19961;-73
2023/08/24 10:57:24;;;;;;;;;;;27.40;91.70;;;;;;5096484;28;19912;-73
2023/08/24 11:00:09;;;;;;;;;;;27.40;91.70;;;;;;5096158;28;19908;-72
2023/08/24 11:02:44;;;;;;;;;;;27.40;91.70;;;;;;5096544;28;19912;-73
2023/08/24 11:05:19;;;;;;;;;;;27.40;91.70;;;;;;5096542;28;19914;-73
2023/08/24 11:07:55;;;;;;;;;;;27.40;91.70;;;;;;5096686;28;20006;-72
2023/08/24 11:10:22;;;;;;;;;;;27.40;91.70;;;;;;5095058;28;20370;-73
2023/08/24 11:13:03;;;;;;;;;;;27.40;91.70;;;;;;5096250;28;20333;-73
2023/08/24 11:15:32;;;;;;;;;;;27.40;91.70;;;;;;5095960;28;19911;-73
2023/08/24 11:18:16;;;;;;;;;;;27.40;91.70;;;;;;5096100;28;20315;-73
2023/08/24 11:20:43;;;;;;;;;;;27.40;91.70;;;;;;5095999;28;19934;-72
2023/08/24 11:23:09;;;;;;;;;;;27.40;91.70;;;;;;5094773;28;20359;-73
2023/08/24 11:25:37;;;;;;;;;;;27.40;91.70;;;;;;5096242;28;19914;-73
2023/08/24 11:28:05;;;;;;;;;;;27.40;91.70;;;;;;5095783;28;20374;-73
2023/08/24 11:30:32;;;;;;;;;;;27.40;91.70;;;;;;5095964;28;19918;-73
2023/08/24 11:32:58;;;;;;;;;;;27.40;91.70;;;;;;5095984;28;19981;-73
2023/08/24 11:35:23;;;;;;;;;;;27.40;91.70;;;;;;5095682;28;20251;-73
2023/08/24 11:37:52;;;;;;;;;;;27.40;91.70;;;;;;5096060;28;19908;-71
2023/08/24 11:40:19;;;;;;;;;;;27.40;91.70;;;;;;5095989;28;19912;-73
2023/08/24 11:42:45;;;;;;;;;;;27.40;91.70;;;;;;5095863;28;19908;-73
2023/08/24 11:45:12;;;;;;;;;;;27.30;91.70;;;;;;5095670;28;19985;-73
2023/08/24 11:47:38;;;;;;;;;;;27.40;91.70;;;;;;5095295;28;19919;-72
2023/08/24 11:50:03;;;;;;;;;;;27.40;91.80;;;;;;5095364;28;19912;-73
2023/08/24 11:52:29;;;;;;;;;;;27.30;91.70;;;;;;5095947;28;19976;-74
2023/08/24 11:54:58;;;;;;;;;;;27.40;91.70;;;;;;5095525;28;19912;-73
2023/08/24 11:57:26;;;;;;;;;;;27.40;91.80;;;;;;5095881;28;19993;-73
2023/08/24 11:59:51;;;;;;;;;;;27.40;91.80;;;;;;5095051;28;20433;-73
2023/08/24 12:02:17;;;;;;;;;;;27.30;91.70;;;;;;5095346;28;19947;-73
2023/08/24 12:04:43;;;;;;;;;;;27.30;91.70;;;;;;5093779;28;19908;-73
2023/08/24 12:07:10;;;;;;;;;;;27.40;91.80;;;;;;5095283;28;19993;-73
2023/08/24 12:09:37;;;;;;;;;;;27.30;91.70;;;;;;5094800;28;20523;-74
2023/08/24 12:12:03;;;;;;;;;;;27.30;91.70;;;;;;5094947;28;20006;-73
2023/08/24 12:14:39;;;;;;;;;;;27.30;91.70;;;;;;5095060;28;20320;-73
2023/08/24 12:17:08;;;;;;;;;;;27.30;91.70;;;;;;5094972;28;20367;-73
2023/08/24 12:19:34;;;;;;;;;;;27.30;91.70;;;;;;5095086;28;19915;-73
2023/08/24 12:21:59;;;;;;;;;;;27.30;91.70;;;;;;5094736;28;19908;-73
2023/08/24 12:24:25;;;;;;;;;;;27.40;91.80;;;;;;5094954;28;19908;-73
2023/08/24 12:26:58;;;;;;;;;;;27.40;91.80;;;;;;5094699;28;19954;-73
2023/08/24 12:29:23;;;;;;;;;;;27.40;91.80;;;;;;5094877;28;19912;-72
2023/08/24 12:31:49;;;;;;;;;;;27.30;91.70;;;;;;5095257;28;20278;-73
2023/08/24 12:34:15;;;;;;;;;;;27.30;91.80;;;;;;5094319;28;20260;-73
2023/08/24 12:36:41;;;;;;;;;;;27.30;91.80;;;;;;5094486;28;19915;-73
2023/08/24 12:39:07;;;;;;;;;;;27.30;91.70;;;;;;5094522;28;19912;-73
2023/08/24 12:41:33;;;;;;;;;;;27.30;91.70;;;;;;5094583;28;19908;-73
2023/08/24 12:43:59;;;;;;;;;;;27.40;91.70;;;;;;5094540;28;19908;-73
2023/08/24 12:46:25;;;;;;;;;;;27.30;91.70;;;;;;5094629;28;20374;-74
2023/08/24 12:48:51;;;;;;;;;;;27.30;91.80;;;;;;5094398;28;19908;-71
2023/08/24 12:51:16;;;;;;;;;;;27.30;91.80;;;;;;5094573;28;20287;-73
2023/08/24 12:53:42;;;;;;;;;;;27.30;91.80;;;;;;5094525;28;19919;-73
2023/08/24 12:56:07;;;;;;;;;;;27.30;91.80;;;;;;5092852;28;20294;-73
2023/08/24 12:58:33;;;;;;;;;;;27.30;91.80;;;;;;5094076;28;19970;-73
2023/08/24 13:00:59;;;;;;;;;;;27.30;91.80;;;;;;5094158;28;19908;-74
2023/08/24 13:03:24;;;;;;;;;;;27.30;91.70;;;;;;5094222;28;19908;-73
2023/08/24 13:05:50;;;;;;;;;;;27.30;91.80;;;;;;5094008;28;19908;-73
2023/08/24 13:08:15;;;;;;;;;;;27.30;91.80;;;;;;5093849;28;20378;-74
2023/08/24 13:10:42;;;;;;;;;;;27.30;91.80;;;;;;5094147;28;19935;-73
2023/08/24 13:13:07;;;;;;;;;;;27.30;91.70;;;;;;5094175;28;20366;-73
2023/08/24 13:15:33;;;;;;;;;;;27.30;91.80;;;;;;5093738;28;19908;-72
2023/08/24 13:17:58;;;;;;;;;;;27.30;91.80;;;;;;5093598;28;19961;-73
2023/08/24 13:20:25;;;;;;;;;;;27.30;91.80;;;;;;5094122;28;19908;-73
2023/08/24 13:22:51;;;;;;;;;;;27.30;91.80;;;;;;5093688;28;20403;-73
2023/08/24 13:25:17;;;;;;;;;;;27.30;91.80;;;;;;5092586;28;19952;-73
2023/08/24 13:27:43;;;;;;;;;;;27.30;91.80;;;;;;5093875;28;20318;-73
2023/08/24 13:30:09;;;;;;;;;;;27.30;91.80;;;;;;5093990;28;19912;-74
2023/08/24 13:32:35;;;;;;;;;;;27.30;91.80;;;;;;5093639;28;19912;-74
2023/08/24 13:35:01;;;;;;;;;;;27.30;91.80;;;;;;5093746;28;19909;-73
2023/08/24 13:37:26;;;;;;;;;;;27.30;91.80;;;;;;5093726;28;20385;-73
2023/08/24 13:39:52;;;;;;;;;;;27.30;91.80;;;;;;5094161;28;20438;-73
2023/08/24 13:42:18;;;;;;;;;;;27.30;91.80;;;;;;5093886;28;19914;-73
2023/08/24 13:44:44;;;;;;;;;;;27.30;91.80;;;;;;5093568;28;20003;-73
2023/08/24 13:47:09;;;;;;;;;;;27.30;91.80;;;;;;5095989;28;19908;-73
2023/08/24 13:49:35;;;;;;;;;;;27.30;91.80;;;;;;5097728;28;19982;-73
2023/08/24 13:52:00;;;;;;;;;;;27.40;91.80;;;;;;5097478;28;20450;-74
2023/08/24 13:54:26;;;;;;;;;;;27.40;91.80;;;;;;5097526;28;19909;-73
2023/08/24 13:56:53;;;;;;;;;;;27.30;91.80;;;;;;5097810;28;19947;-73
2023/08/24 13:59:19;;;;;;;;;;;27.30;91.80;;;;;;5097685;28;19909;-69
2023/08/24 14:01:45;;;;;;;;;;;27.30;91.80;;;;;;5097770;28;19908;-73
2023/08/24 14:04:10;;;;;;;;;;;27.30;91.80;;;;;;5097323;28;20354;-73
2023/08/24 14:06:39;;;;;;;;;;;27.30;91.80;;;;;;5097890;28;19977;-73
2023/08/24 14:09:04;;;;;;;;;;;27.30;91.80;;;;;;5097426;28;19915;-74
2023/08/24 14:11:30;;;;;;;;;;;27.40;91.80;;;;;;5097265;28;19912;-73